Latest Weather Observations for Gold Coast Seaway

IDQ60801

Issued at 11:22 pm EST Monday 18 June 2018 (issued every 10 minutes, with the page automatically refreshed every 10 minutes)

About weather observations | Map of weather stations | Latest weather observations for QLD | Other Formats
Station Details ID: 040764 Name: GOLD COAST SEAWAY Lat: -27.94 Lon: 153.43 Height: 2.98 m
Data from the previous 72 hours. | See also: Recent months at Gold Coast Seaway
Date/Time
EST
Temp
°C
App
Temp
°C
Dew
Point
°C
Rel
Hum
%
Delta-T
°C
Wind Press
QNH
hPa
Press
MSL
hPa
Rain since
9am
mm
Dir  Spd
km/h
Gust
km/h
Spd
kts
Gust
kts
18/11:00pm 12.8 8.1 3.2 52 4.2 NW 17 22 9 12 1017.7 1017.7 0.0
18/10:30pm 13.2 7.6 1.5 45 5.0 WNW 20 26 11 14 1017.6 1017.6 0.0
18/10:00pm 13.4 7.9 1.7 45 5.0 W 20 28 11 15 1017.5 1017.5 0.0
18/09:30pm 13.3 7.7 1.3 44 5.1 W 20 26 11 14 1017.3 1017.3 0.0
18/09:00pm 13.3 7.0 1.6 45 5.0 W 24 32 13 17 1017.5 1017.5 0.0
18/08:30pm 13.2 7.9 1.8 46 4.9 WNW 19 24 10 13 1017.6 1017.6 0.0
18/08:00pm 13.4 8.0 2.3 47 4.8 WNW 20 26 11 14 1017.7 1017.7 0.0
18/07:30pm 13.9 8.0 1.9 44 5.2 WNW 22 28 12 15 1017.6 1017.6 0.0
18/07:00pm 14.6 8.2 1.2 40 5.8 W 24 32 13 17 1017.4 1017.4 0.0
18/06:30pm 14.7 8.7 1.3 40 5.8 W 22 28 12 15 1017.1 1017.1 0.0
18/06:00pm 15.0 9.9 0.8 38 6.1 W 17 26 9 14 1016.6 1016.6 0.0
18/05:30pm 15.5 9.5 1.3 38 6.2 W 22 32 12 17 1015.9 1015.9 0.0
18/05:00pm 15.9 10.2 0.5 35 6.6 W 20 32 11 17 1015.6 1015.6 0.0
18/04:30pm 16.9 10.9 1.0 34 7.0 WSW 22 33 12 18 1015.3 1015.3 0.0
18/04:00pm 17.4 11.7 0.6 32 7.3 WSW 20 32 11 17 1015.0 1015.0 0.0
18/03:30pm 18.0 12.3 0.6 31 7.6 WSW 20 33 11 18 1014.6 1014.6 0.0
18/03:00pm 18.2 12.2 0.8 31 7.7 W 22 35 12 19 1014.2 1014.2 0.0
18/02:30pm 18.4 12.9 0.5 30 7.9 W 19 32 10 17 1014.2 1014.2 0.0
18/02:00pm 18.2 11.0 0.8 31 7.7 WNW 28 37 15 20 1014.3 1014.3 0.0
18/01:30pm 17.8 9.9 0.9 32 7.5 WNW 32 41 17 22 1014.5 1014.5 0.0
18/01:00pm 17.7 10.9 0.8 32 7.4 W 26 37 14 20 1014.8 1014.8 0.0
18/12:30pm 17.1 9.0 -0.1 31 7.4 WNW 32 41 17 22 1015.1 1015.1 0.0
18/12:00pm 17.0 10.1 0.2 32 7.2 WNW 26 37 14 20 1015.8 1015.8 0.0
18/11:30am 16.0 8.3 -0.2 33 6.9 WNW 30 39 16 21 1016.5 1016.5 0.0
18/11:21am 15.8 7.7 -0.4 33 6.8 W 32 50 17 27 1016.5 1016.5 0.0
18/11:00am 15.5 8.1 -0.7 33 6.8 W 28 37 15 20 1017.1 1017.1 0.0
18/10:30am 15.1 7.4 0.2 36 6.3 W 30 39 16 21 1017.2 1017.2 0.0
18/10:00am 14.7 7.0 0.2 37 6.1 W 30 39 16 21 1017.7 1017.7 0.0
18/09:30am 14.0 6.6 -0.4 37 6.0 W 28 37 15 20 1018.1 1018.1 0.0
18/09:00am 13.5 6.6 0.2 40 5.5 W 26 37 14 20 1018.1 1018.1 0.0
18/08:30am 13.1 6.5 -0.2 40 5.5 WSW 24 37 13 20 1018.1 1018.1 0.0
18/08:00am 12.0 7.5 -0.2 43 5.0 W 13 19 7 10 1018.3 1018.3 0.0
18/07:30am 11.1 6.6 -0.4 45 4.6 W 13 15 7 8 1018.1 1018.1 0.0
18/07:00am 10.4 5.2 -0.1 48 4.2 WNW 17 22 9 12 1017.9 1017.9 0.0
18/06:30am 9.8 5.0 -0.1 50 4.0 WNW 15 17 8 9 1017.7 1017.7 0.0
18/06:00am 10.3 5.1 -0.2 48 4.2 WNW 17 19 9 10 1017.5 1017.5 0.0
18/05:30am 10.0 4.7 -0.5 48 4.2 W 17 24 9 13 1017.3 1017.3 0.0
18/05:00am 10.3 4.5 -0.2 48 4.2 WNW 20 26 11 14 1017.2 1017.2 0.0
18/04:30am 9.8 5.2 -0.7 48 4.1 W 13 19 7 10 1017.3 1017.3 0.0
18/04:00am 9.9 4.9 -0.9 47 4.2 WNW 15 17 8 9 1017.4 1017.4 0.0
18/03:30am 9.3 4.3 -1.1 48 4.0 WNW 15 17 8 9 1017.8 1017.8 0.0
18/03:00am 10.9 6.3 -0.9 44 4.7 WNW 13 30 7 16 1017.9 1017.9 0.0
18/02:30am 11.1 6.7 -2.3 39 5.2 W 11 17 6 9 1017.9 1017.9 0.0
18/02:00am 11.4 5.5 -2.0 39 5.2 W 19 24 10 13 1017.9 1017.9 0.0
18/01:30am 11.3 5.8 -1.8 40 5.1 W 17 20 9 11 1018.2 1018.2 0.0
18/01:00am 12.0 6.0 -1.5 39 5.3 W 20 30 11 16 1018.4 1018.4 0.0
18/12:30am 12.0 6.9 -2.2 37 5.5 WSW 15 22 8 12 1018.4 1018.4 0.0
18/12:00am 12.1 7.1 -1.4 39 5.3 W 15 20 8 11 1018.6 1018.6 0.0
 
Date/Time
EST
Temp
°C
App
Temp
°C
Dew
Point
°C
Rel
Hum
%
Delta-T
°C
Wind Press
QNH
hPa
Press
MSL
hPa
Rain since
9am
mm
Dir  Spd
km/h
Gust
km/h
Spd
kts
Gust
kts
17/11:30pm 11.7 7.1 -1.1 41 5.1 WSW 13 15 7 8 1018.5 1018.5 0.0
17/11:00pm 11.1 6.5 -1.0 43 4.8 W 13 17 7 9 1018.6 1018.6 0.0
17/10:30pm 13.1 7.9 0.2 41 5.4 WNW 17 20 9 11 1018.6 1018.6 0.0
17/10:00pm 12.8 8.2 -0.8 39 5.5 NW 13 17 7 9 1018.8 1018.8 0.0
17/09:30pm 13.7 7.9 0.0 39 5.7 NW 20 24 11 13 1018.4 1018.4 0.0
17/09:00pm 13.1 9.1 0.2 41 5.4 NNW 11 15 6 8 1018.5 1018.5 0.0
17/08:30pm 13.3 9.0 0.7 42 5.3 NW 13 15 7 8 1018.5 1018.5 0.0
17/08:00pm 12.7 8.6 -0.2 41 5.3 NNW 11 17 6 9 1018.4 1018.4 0.0
17/07:30pm 14.2 10.0 -0.6 36 6.1 NNW 11 15 6 8 1018.1 1018.1 0.0
17/07:00pm 14.6 8.7 -0.7 35 6.3 WNW 20 28 11 15 1017.7 1017.7 0.0
17/06:30pm 14.3 8.9 -1.7 33 6.5 W 17 19 9 10 1017.3 1017.3 0.0
17/06:00pm 14.9 9.8 -2.1 31 6.8 WNW 15 17 8 9 1017.1 1017.1 0.0
17/05:30pm 15.8 11.0 -2.6 28 7.4 WNW 13 17 7 9 1016.6 1016.6 0.0
17/05:00pm 16.4 12.3 -3.1 26 7.8 W 9 13 5 7 1016.4 1016.4 0.0
17/04:30pm 18.0 12.1 -2.3 25 8.4 W 19 26 10 14 1015.9 1015.9 0.0
17/04:00pm 18.7 10.2 -3.4 22 9.0 W 32 41 17 22 1015.5 1015.5 0.0
17/03:30pm 19.3 12.1 -2.3 23 9.0 W 26 39 14 21 1015.0 1015.0 0.0
17/03:00pm 19.3 10.4 -1.7 24 8.9 WNW 35 41 19 22 1014.5 1014.5 0.0
17/02:30pm 19.4 11.1 -1.7 24 9.0 WNW 32 41 17 22 1014.5 1014.5 0.0
17/02:00pm 19.6 10.8 -0.9 25 8.8 WNW 35 44 19 24 1014.6 1014.6 0.0
17/01:30pm 19.5 11.2 -1.6 24 9.0 W 32 48 17 26 1014.9 1014.9 0.0
17/01:28pm 19.3 10.8 -1.7 24 8.9 W 33 52 18 28 1015.0 1015.0 0.0
17/01:00pm 18.5 8.5 -1.9 25 8.5 WNW 41 52 22 28 1015.2 1015.2 0.0
17/12:30pm 19.1 9.3 -0.3 27 8.4 W 41 52 22 28 1015.4 1015.4 0.0
17/12:00pm 18.4 10.1 -1.4 26 8.4 WNW 32 41 17 22 1015.9 1015.9 0.0
17/11:41am 18.7 11.3 -0.7 27 8.3 WNW 28 46 15 25 1016.5 1016.5 0.0
17/11:30am 18.4 11.7 -1.4 26 8.4 NW 24 32 13 17 1016.8 1016.8 0.0
17/11:00am 18.2 13.3 1.7 33 7.4 NW 17 26 9 14 1017.6 1017.6 0.0
17/10:30am 17.2 11.7 0.8 33 7.2 NW 19 28 10 15 1018.1 1018.1 0.0
17/10:00am 16.5 11.0 1.8 37 6.5 NW 20 26 11 14 1018.4 1018.4 0.0
17/09:30am 16.2 10.0 2.2 39 6.3 NW 24 30 13 16 1018.6 1018.6 0.0
17/09:00am 15.4 9.3 2.9 43 5.6 NW 24 28 13 15 1018.8 1018.8 0.0
17/08:30am 13.8 8.6 3.6 50 4.6 NW 20 24 11 13 1018.9 1018.9 0.0
17/08:00am 13.0 7.1 3.7 53 4.2 NW 24 28 13 15 1018.6 1018.6 0.0
17/07:30am 11.9 7.7 3.9 58 3.6 NNW 15 20 8 11 1018.4 1018.4 0.0
17/07:00am 11.0 7.1 3.3 59 3.4 NW 13 17 7 9 1018.1 1018.1 0.0
17/06:30am 9.8 5.6 3.8 66 2.6 NW 15 19 8 10 1018.0 1018.0 0.0
17/06:00am 10.1 6.6 3.4 63 2.9 WNW 11 15 6 8 1017.5 1017.5 0.0
17/05:30am 10.1 5.8 3.4 63 2.9 NW 15 20 8 11 1017.2 1017.2 0.0
17/05:00am 11.5 7.2 3.3 57 3.6 NW 15 19 8 10 1016.9 1016.9 0.0
17/04:30am 12.2 7.2 3.4 55 3.9 NW 19 22 10 12 1016.8 1016.8 0.0
17/04:00am 12.2 7.6 3.7 56 3.8 NW 17 20 9 11 1016.9 1016.9 0.0
17/03:30am 13.0 8.6 4.9 58 3.7 NNW 17 22 9 12 1016.9 1016.9 0.0
17/03:00am 12.1 8.6 5.3 63 3.1 NNW 13 19 7 10 1017.0 1017.0 0.0
17/02:30am 12.3 8.8 5.5 63 3.2 NNW 13 17 7 9 1017.1 1017.1 0.0
17/02:00am 9.1 6.5 4.3 72 2.1 NW 7 11 4 6 1017.5 1017.5 0.0
17/01:30am 10.8 7.9 4.7 66 2.8 NNW 9 11 5 6 1017.8 1017.8 0.0
17/01:00am 10.7 8.4 7.4 80 1.6 N 9 11 5 6 1018.1 1018.1 0.0
17/12:30am 9.4 7.7 6.1 80 1.5 WNW 4 7 2 4 1018.3 1018.3 0.0
17/12:00am 9.8 7.9 6.7 81 1.4 WSW 6 9 3 5 1018.5 1018.5 0.0
 
Date/Time
EST
Temp
°C
App
Temp
°C
Dew
Point
°C
Rel
Hum
%
Delta-T
°C
Wind Press
QNH
hPa
Press
MSL
hPa
Rain since
9am
mm
Dir  Spd
km/h
Gust
km/h
Spd
kts
Gust
kts
16/11:30pm 10.3 9.7 7.2 81 1.5 CALM 0 0 0 0 1018.6 1018.6 0.0
16/11:00pm 11.4 9.2 7.7 78 1.8 NNW 9 9 5 5 1018.8 1018.8 0.0
16/10:30pm 11.9 9.4 6.4 69 2.6 NNW 9 9 5 5 1019.0 1019.0 0.0
16/10:00pm 13.8 11.0 6.9 63 3.3 WNW 11 13 6 7 1019.0 1019.0 0.0
16/09:30pm 15.3 11.6 7.8 61 3.7 NW 17 20 9 11 1019.1 1019.1 0.0
16/09:00pm 16.1 13.3 8.6 61 3.8 NNW 13 17 7 9 1018.9 1018.9 0.0
16/08:30pm 16.3 13.2 9.0 62 3.8 NNW 15 20 8 11 1018.9 1018.9 0.0
16/08:00pm 17.0 13.2 9.9 63 3.7 NNW 20 28 11 15 1018.8 1018.8 0.0
16/07:30pm 16.8 13.3 10.2 65 3.5 NNW 19 30 10 16 1018.5 1018.5 0.0
16/07:00pm 16.0 13.0 9.2 64 3.5 NNW 15 20 8 11 1018.2 1018.2 0.0
16/06:30pm 15.7 13.6 9.6 67 3.2 NNW 11 13 6 7 1017.8 1017.8 0.0
16/06:00pm 16.2 13.2 7.9 58 4.2 NNW 13 20 7 11 1017.5 1017.5 0.0
16/05:30pm 16.9 12.5 6.4 50 5.1 N 19 26 10 14 1017.1 1017.1 0.0
16/05:00pm 17.4 12.7 6.0 47 5.6 N 20 30 11 16 1016.8 1016.8 0.0
16/04:30pm 18.3 13.8 6.8 47 5.7 N 20 26 11 14 1016.6 1016.6 0.0
16/04:00pm 20.0 15.0 6.4 41 6.8 N 22 30 12 16 1016.4 1016.4 0.0
16/03:30pm 21.2 16.3 4.3 33 8.2 N 19 22 10 12 1016.4 1016.4 0.0
16/03:00pm 20.6 15.0 3.3 32 8.2 N 22 30 12 16 1016.4 1016.4 0.0
16/02:30pm 22.1 18.0 4.2 31 8.7 NW 15 20 8 11 1016.6 1016.6 0.0
16/02:00pm 21.8 16.7 3.9 31 8.6 NW 20 26 11 14 1016.8 1016.8 0.0
16/01:30pm 22.3 17.6 2.9 28 9.2 WNW 17 26 9 14 1017.0 1017.0 0.0
16/01:00pm 21.8 16.5 3.0 29 8.9 NW 20 28 11 15 1017.4 1017.4 0.0
16/12:30pm 21.3 16.3 3.5 31 8.5 WNW 19 26 10 14 1018.0 1018.0 0.0
16/12:00pm 20.9 15.7 2.7 30 8.5 WNW 19 24 10 13 1018.7 1018.7 0.0
16/11:30am 20.3 15.9 2.6 31 8.2 W 15 20 8 11 1019.5 1019.5 0.0
16/11:00am 20.2 15.2 3.4 33 7.9 W 19 26 10 14 1019.9 1019.9 0.0
16/10:30am 19.7 15.3 2.6 32 7.9 W 15 22 8 12 1020.5 1020.5 0.0
16/10:00am 18.6 15.7 4.4 39 6.7 NW 9 13 5 7 1021.0 1021.0 0.0
16/09:30am 17.9 13.8 2.2 35 7.1 WNW 13 15 7 8 1021.3 1021.3 0.0
16/09:00am 16.3 13.2 3.7 43 5.8 WNW 9 11 5 6 1021.3 1021.3 0.0
16/08:30am 15.1 12.6 4.5 49 4.9 W 7 9 4 5 1021.3 1021.3 0.0
16/08:00am 12.5 10.0 4.7 59 3.6 SSW 7 9 4 5 1021.2 1021.2 0.0
16/07:30am 10.5 7.4 5.5 71 2.3 SSW 11 15 6 8 1021.2 1021.2 0.0
16/07:00am 8.4 5.8 4.0 74 1.9 SSW 7 11 4 6 1021.1 1021.1 0.0
16/06:30am 8.9 6.5 4.3 73 2.0 W 6 9 3 5 1020.9 1020.9 0.0
16/06:00am 9.1 5.8 4.5 73 2.0 W 11 15 6 8 1020.7 1020.7 0.0
16/05:30am 10.1 6.8 6.4 78 1.7 NW 13 15 7 8 1020.6 1020.6 0.0
16/05:00am 8.1 5.0 3.4 72 2.0 W 9 9 5 5 1020.4 1020.4 0.0
16/04:30am 9.1 6.0 3.7 69 2.3 WNW 9 11 5 6 1020.3 1020.3 0.0
16/04:00am 8.0 5.4 4.0 76 1.7 NW 7 9 4 5 1020.5 1020.5 0.0
16/03:30am 8.1 6.3 3.2 71 2.1 WNW 2 7 1 4 1020.6 1020.6 0.0
16/03:00am 9.8 6.6 2.9 62 2.9 W 9 11 5 6 1020.7 1020.7 0.0
16/02:30am 11.2 7.3 5.5 68 2.6 WNW 15 17 8 9 1020.8 1020.8 0.0
16/02:00am 10.9 7.6 4.8 66 2.7 NW 11 13 6 7 1021.0 1021.0 0.0
16/01:30am 12.0 8.2 4.0 58 3.6 WNW 13 15 7 8 1020.9 1020.9 0.0
16/01:00am 12.7 9.0 6.1 64 3.1 WNW 15 17 8 9 1021.0 1021.0 0.0
16/12:30am 11.4 8.7 5.5 67 2.7 NW 9 13 5 7 1021.1 1021.1 0.0
16/12:00am 12.9 10.4 8.0 72 2.4 WNW 11 13 6 7 1021.0 1021.0 0.0
 
Date/Time
EST
Temp
°C
App
Temp
°C
Dew
Point
°C
Rel
Hum
%
Delta-T
°C
Wind Press
QNH
hPa
Press
MSL
hPa
Rain since
9am
mm
Dir  Spd
km/h
Gust
km/h
Spd
kts
Gust
kts
15/11:30pm 13.3 10.4 8.0 70 2.6 NW 13 15 7 8 1021.1 1021.1 0.0

Other Formats:

Comma delimited format used in spreadsheet applications
http://www.bom.gov.au/fwo/IDQ60801/IDQ60801.94580.axf

JavaScript Object Notation format (JSON) in row-major order
http://www.bom.gov.au/fwo/IDQ60801/IDQ60801.94580.json